Time;durP1;ratioP1;P1;durP2;ratioP2;P2;SDS_P1;SDS_P2;PMS_P1;PMS_P2;Temp;Humidity;BMP_temperature;BMP_pressure;BME280_temperature;BME280_humidity;BME280_pressure;Samples;Min_cycle;Max_cycle;Signal;HPM_P1;HPM_P2
2021/08/18 00:00:18;;;;;;;4.78;2.70;;;;;;;;;;5012622;28;20129;-58
2021/08/18 00:02:46;;;;;;;9.38;3.33;;;;;;;;;;5011700;28;20064;-58
2021/08/18 00:05:17;;;;;;;9.15;3.42;;;;;;;;;;5011224;28;20127;-58
2021/08/18 00:07:45;;;;;;;6.65;2.80;;;;;;;;;;5012354;28;20046;-57
2021/08/18 00:10:14;;;;;;;6.90;3.10;;;;;;;;;;5012137;28;20046;-58
2021/08/18 00:12:43;;;;;;;6.97;3.17;;;;;;;;;;5012000;28;20137;-57
2021/08/18 00:15:13;;;;;;;5.93;3.25;;;;;;;;;;5011689;28;20053;-58
2021/08/18 00:17:43;;;;;;;7.90;3.00;;;;;;;;;;5011711;28;20133;-57
2021/08/18 00:20:12;;;;;;;5.90;2.72;;;;;;;;;;5011798;28;20948;-57
2021/08/18 00:22:40;;;;;;;6.88;3.10;;;;;;;;;;5011831;28;20046;-57
2021/08/18 00:25:09;;;;;;;8.93;3.33;;;;;;;;;;5011350;28;20060;-58
2021/08/18 00:27:39;;;;;;;10.13;3.40;;;;;;;;;;5011581;28;20050;-58
2021/08/18 00:30:07;;;;;;;9.30;3.58;;;;;;;;;;5011967;28;20050;-57
2021/08/18 00:32:36;;;;;;;7.85;3.00;;;;;;;;;;5011661;28;20042;-58
2021/08/18 00:35:06;;;;;;;7.80;2.95;;;;;;;;;;5010641;28;20053;-59
2021/08/18 00:37:34;;;;;;;9.23;2.78;;;;;;;;;;5010849;28;20045;-58
2021/08/18 00:40:02;;;;;;;8.13;3.78;;;;;;;;;;5011697;28;20050;-59
2021/08/18 00:42:31;;;;;;;9.63;2.95;;;;;;;;;;5011551;28;20128;-59
2021/08/18 00:45:00;;;;;;;7.15;3.10;;;;;;;;;;5010936;28;20062;-58
2021/08/18 00:47:28;;;;;;;7.43;3.25;;;;;;;;;;5011491;28;20437;-58
2021/08/18 00:49:56;;;;;;;5.75;2.95;;;;;;;;;;5011713;28;20055;-59
2021/08/18 00:52:26;;;;;;;8.77;3.10;;;;;;;;;;5011266;28;20156;-57
2021/08/18 00:54:54;;;;;;;7.15;2.78;;;;;;;;;;5010955;28;20494;-57
2021/08/18 00:57:25;;;;;;;7.35;3.15;;;;;;;;;;5011394;28;20042;-57
2021/08/18 00:59:53;;;;;;;6.43;2.97;;;;;;;;;;5010844;28;20140;-58
2021/08/18 01:02:22;;;;;;;7.35;3.20;;;;;;;;;;5025003;22;20103;-69
2021/08/18 01:04:51;;;;;;;8.25;3.28;;;;;;;;;;5009823;28;20050;-69
2021/08/18 01:07:19;;;;;;;5.20;2.60;;;;;;;;;;5011155;28;20053;-69
2021/08/18 01:09:49;;;;;;;8.32;2.97;;;;;;;;;;5010798;28;20129;-69
2021/08/18 01:12:17;;;;;;;6.53;2.80;;;;;;;;;;5010805;28;20050;-69
2021/08/18 01:14:45;;;;;;;8.65;3.10;;;;;;;;;;5009365;28;20041;-69
2021/08/18 01:17:14;;;;;;;7.97;2.85;;;;;;;;;;5008298;28;20050;-69
2021/08/18 01:19:42;;;;;;;8.93;3.00;;;;;;;;;;5010579;28;20049;-69
2021/08/18 01:22:11;;;;;;;8.30;2.92;;;;;;;;;;5010573;28;20056;-69
2021/08/18 01:24:39;;;;;;;6.28;2.90;;;;;;;;;;5010167;28;20045;-69
2021/08/18 01:27:09;;;;;;;7.75;3.00;;;;;;;;;;5010581;28;20087;-69
2021/08/18 01:29:38;;;;;;;6.78;3.15;;;;;;;;;;5010422;28;20048;-69
2021/08/18 01:32:07;;;;;;;5.78;2.75;;;;;;;;;;5010567;28;20482;-69
2021/08/18 01:34:36;;;;;;;7.45;2.92;;;;;;;;;;5009931;28;20054;-69
2021/08/18 01:37:05;;;;;;;9.20;3.13;;;;;;;;;;5010644;28;20054;-69
2021/08/18 01:39:33;;;;;;;10.57;3.50;;;;;;;;;;5007090;28;20493;-69
2021/08/18 01:42:01;;;;;;;6.60;2.88;;;;;;;;;;4998950;28;20077;-69
2021/08/18 01:44:32;;;;;;;7.78;3.35;;;;;;;;;;5009817;28;20053;-69
2021/08/18 01:47:01;;;;;;;5.20;2.63;;;;;;;;;;5010406;28;20417;-69
2021/08/18 01:49:30;;;;;;;7.40;2.50;;;;;;;;;;5010166;28;20136;-69
2021/08/18 01:51:58;;;;;;;4.47;2.28;;;;;;;;;;5010461;28;20056;-69
2021/08/18 01:54:27;;;;;;;8.38;3.17;;;;;;;;;;5009800;28;20068;-69
2021/08/18 01:56:55;;;;;;;7.13;3.30;;;;;;;;;;4998591;28;20058;-69
2021/08/18 01:59:26;;;;;;;10.57;4.28;;;;;;;;;;4991039;28;20042;-69
2021/08/18 02:01:54;;;;;;;5.70;2.95;;;;;;;;;;4998992;28;20054;-70
2021/08/18 02:04:25;;;;;;;8.48;3.60;;;;;;;;;;4989735;28;20104;-69
2021/08/18 02:06:53;;;;;;;7.78;3.17;;;;;;;;;;4990798;28;20058;-69
2021/08/18 02:09:21;;;;;;;7.60;3.17;;;;;;;;;;4999371;28;20052;-69
2021/08/18 02:11:50;;;;;;;8.80;3.40;;;;;;;;;;5010624;28;20048;-70
2021/08/18 02:14:18;;;;;;;7.43;3.33;;;;;;;;;;5009431;28;20124;-69
2021/08/18 02:16:46;;;;;;;8.23;2.97;;;;;;;;;;5010336;28;20042;-69
2021/08/18 02:19:14;;;;;;;9.52;3.53;;;;;;;;;;5010087;28;20046;-69
2021/08/18 02:21:44;;;;;;;13.73;3.65;;;;;;;;;;5010099;28;20046;-69
2021/08/18 02:24:12;;;;;;;8.57;3.60;;;;;;;;;;5009580;28;20044;-69
2021/08/18 02:26:41;;;;;;;9.27;3.78;;;;;;;;;;5010634;28;20054;-69
2021/08/18 02:29:09;;;;;;;6.72;2.92;;;;;;;;;;5013853;28;20061;-69
2021/08/18 02:31:37;;;;;;;9.95;3.85;;;;;;;;;;5013819;28;20414;-69
2021/08/18 02:34:08;;;;;;;6.80;3.08;;;;;;;;;;5013327;28;20050;-68
2021/08/18 02:36:36;;;;;;;6.75;2.83;;;;;;;;;;5013551;28;20054;-69
2021/08/18 02:39:07;;;;;;;10.45;3.95;;;;;;;;;;5013685;28;20072;-69
2021/08/18 02:41:36;;;;;;;10.18;2.85;;;;;;;;;;5014143;28;20075;-69
2021/08/18 02:44:04;;;;;;;9.82;3.88;;;;;;;;;;5013327;28;20045;-68
2021/08/18 02:46:32;;;;;;;9.88;4.18;;;;;;;;;;5013841;28;20128;-69
2021/08/18 02:49:01;;;;;;;10.65;3.88;;;;;;;;;;5013582;28;20071;-68
2021/08/18 02:51:29;;;;;;;11.25;3.70;;;;;;;;;;5013514;28;20436;-68
2021/08/18 02:53:57;;;;;;;11.93;4.55;;;;;;;;;;5012916;28;20045;-70
2021/08/18 02:56:27;;;;;;;12.20;4.25;;;;;;;;;;5006135;28;20057;-70
2021/08/18 02:58:55;;;;;;;14.70;4.13;;;;;;;;;;4993976;28;20052;-70
2021/08/18 03:01:23;;;;;;;9.93;3.90;;;;;;;;;;4994370;28;20061;-70
2021/08/18 03:03:52;;;;;;;8.90;3.72;;;;;;;;;;5008642;28;20045;-70
2021/08/18 03:06:20;;;;;;;10.02;4.07;;;;;;;;;;5013187;28;20064;-70
2021/08/18 03:08:49;;;;;;;9.48;3.50;;;;;;;;;;5013207;28;20054;-70
2021/08/18 03:11:17;;;;;;;10.98;4.05;;;;;;;;;;5012795;28;20069;-70
2021/08/18 03:13:46;;;;;;;10.63;4.18;;;;;;;;;;5012608;28;20307;-69
2021/08/18 03:16:15;;;;;;;13.18;4.93;;;;;;;;;;5012666;28;20430;-69
2021/08/18 03:18:43;;;;;;;12.50;4.22;;;;;;;;;;5012969;28;20045;-69
2021/08/18 03:21:11;;;;;;;15.90;5.43;;;;;;;;;;5012726;28;20398;-69
2021/08/18 03:23:40;;;;;;;10.02;3.83;;;;;;;;;;5012054;28;20046;-69
2021/08/18 03:26:25;;;;;;;9.51;4.18;;;;;;;;;;2602201;28;10003949;-69
2021/08/18 03:28:55;;;;;;;11.00;3.95;;;;;;;;;;3614956;28;10001343;-69
2021/08/18 03:31:23;;;;;;;17.13;4.78;;;;;;;;;;4993497;28;20052;-69
2021/08/18 03:33:52;;;;;;;12.40;4.28;;;;;;;;;;4993112;28;20058;-69
2021/08/18 03:36:20;;;;;;;13.05;4.40;;;;;;;;;;4992872;28;20046;-69
2021/08/18 03:38:48;;;;;;;13.80;4.38;;;;;;;;;;4993984;28;20049;-69
2021/08/18 03:41:17;;;;;;;15.18;4.68;;;;;;;;;;4992658;28;20050;-69
2021/08/18 03:43:45;;;;;;;13.63;4.43;;;;;;;;;;4999728;28;20427;-68
2021/08/18 03:46:15;;;;;;;17.00;4.80;;;;;;;;;;5012301;28;20052;-69
2021/08/18 03:48:43;;;;;;;13.32;4.47;;;;;;;;;;5012713;28;20050;-69
2021/08/18 03:51:11;;;;;;;13.10;4.72;;;;;;;;;;5012494;28;20053;-69
2021/08/18 03:53:40;;;;;;;15.10;4.82;;;;;;;;;;5011825;28;20046;-69
2021/08/18 03:56:08;;;;;;;12.57;5.03;;;;;;;;;;5006637;28;20509;-70
2021/08/18 03:58:36;;;;;;;13.75;4.88;;;;;;;;;;4993095;28;20049;-69
2021/08/18 04:01:04;;;;;;;14.07;4.65;;;;;;;;;;5012209;28;20402;-68
2021/08/18 04:03:36;;;;;;;15.98;4.95;;;;;;;;;;5010824;28;20050;-68
2021/08/18 04:06:04;;;;;;;11.38;4.88;;;;;;;;;;5012428;28;20068;-68
2021/08/18 04:08:33;;;;;;;12.95;4.93;;;;;;;;;;5012277;28;20054;-68
2021/08/18 04:11:04;;;;;;;14.98;5.32;;;;;;;;;;5011821;28;20500;-67
2021/08/18 04:13:33;;;;;;;13.25;4.65;;;;;;;;;;5011505;28;20053;-67
2021/08/18 04:16:01;;;;;;;13.63;4.75;;;;;;;;;;5011539;28;20520;-67
2021/08/18 04:18:29;;;;;;;11.00;4.38;;;;;;;;;;5011863;28;20077;-67
2021/08/18 04:21:00;;;;;;;13.23;4.97;;;;;;;;;;5011856;28;20053;-68
2021/08/18 04:23:29;;;;;;;13.13;4.70;;;;;;;;;;5011717;28;20050;-68
2021/08/18 04:25:57;;;;;;;12.68;4.32;;;;;;;;;;5011553;28;20506;-68
2021/08/18 04:28:25;;;;;;;16.48;4.82;;;;;;;;;;5012129;28;20056;-69
2021/08/18 04:30:54;;;;;;;10.25;4.05;;;;;;;;;;5011826;28;20052;-68
2021/08/18 04:33:22;;;;;;;14.38;5.10;;;;;;;;;;5011655;28;20082;-68
2021/08/18 04:35:50;;;;;;;12.80;5.35;;;;;;;;;;5011611;28;20058;-67
2021/08/18 04:38:20;;;;;;;15.07;4.80;;;;;;;;;;5011957;28;20046;-68
2021/08/18 04:40:48;;;;;;;18.58;4.60;;;;;;;;;;5012591;28;20506;-68
2021/08/18 04:43:19;;;;;;;10.95;4.43;;;;;;;;;;5012763;28;20084;-68
2021/08/18 04:45:47;;;;;;;17.20;5.35;;;;;;;;;;5010995;28;20418;-67
2021/08/18 04:48:15;;;;;;;10.68;4.20;;;;;;;;;;5011647;28;20050;-68
2021/08/18 04:50:44;;;;;;;13.23;5.00;;;;;;;;;;5010664;28;20572;-67
2021/08/18 04:53:12;;;;;;;14.90;5.13;;;;;;;;;;5011403;28;20089;-68
2021/08/18 04:55:42;;;;;;;12.15;4.53;;;;;;;;;;5008658;28;20060;-68
2021/08/18 04:58:10;;;;;;;12.15;4.68;;;;;;;;;;4991653;28;20058;-68
2021/08/18 05:00:38;;;;;;;11.73;4.65;;;;;;;;;;4991453;28;20054;-68
2021/08/18 05:03:07;;;;;;;14.50;4.90;;;;;;;;;;5001063;28;20049;-67
2021/08/18 05:05:35;;;;;;;14.20;4.80;;;;;;;;;;5010760;28;20492;-67
2021/08/18 05:08:04;;;;;;;12.57;4.80;;;;;;;;;;5011048;28;20136;-67
2021/08/18 05:10:32;;;;;;;16.80;5.18;;;;;;;;;;5009977;28;20046;-69
2021/08/18 05:13:01;;;;;;;11.30;4.43;;;;;;;;;;5009617;28;20046;-68
2021/08/18 05:15:30;;;;;;;20.42;5.70;;;;;;;;;;5010591;28;20045;-67
2021/08/18 05:17:58;;;;;;;15.48;5.03;;;;;;;;;;5010872;28;20570;-67
2021/08/18 05:20:26;;;;;;;16.80;5.10;;;;;;;;;;5010803;28;20411;-68
2021/08/18 05:22:55;;;;;;;16.48;5.78;;;;;;;;;;5010997;28;20049;-67
2021/08/18 05:25:23;;;;;;;12.48;4.97;;;;;;;;;;5010471;28;20142;-67
2021/08/18 05:27:51;;;;;;;10.35;4.50;;;;;;;;;;5010882;28;20132;-68
2021/08/18 05:30:24;;;;;;;11.45;4.65;;;;;;;;;;5010029;28;20050;-68
2021/08/18 05:32:53;;;;;;;14.77;4.65;;;;;;;;;;5010029;28;20128;-67
2021/08/18 05:35:22;;;;;;;16.17;5.50;;;;;;;;;;5010484;28;20056;-67
2021/08/18 05:37:50;;;;;;;14.95;5.68;;;;;;;;;;5010935;28;20054;-68
2021/08/18 05:40:18;;;;;;;11.63;4.32;;;;;;;;;;5010861;28;20053;-68
2021/08/18 05:42:47;;;;;;;15.32;5.13;;;;;;;;;;5010401;28;20056;-68
2021/08/18 05:45:16;;;;;;;17.00;6.18;;;;;;;;;;5010353;28;20081;-67
2021/08/18 05:47:46;;;;;;;12.57;5.45;;;;;;;;;;5010647;28;20510;-67
2021/08/18 05:50:14;;;;;;;13.18;5.13;;;;;;;;;;5010674;28;20046;-67
2021/08/18 05:52:42;;;;;;;17.67;5.90;;;;;;;;;;5010618;28;20137;-68
2021/08/18 05:55:11;;;;;;;13.43;5.10;;;;;;;;;;5010241;28;20144;-67
2021/08/18 05:57:39;;;;;;;13.40;5.47;;;;;;;;;;4992590;28;20051;-69
2021/08/18 06:00:08;;;;;;;14.07;5.03;;;;;;;;;;5000600;28;20050;-68
2021/08/18 06:02:37;;;;;;;13.35;5.50;;;;;;;;;;5012314;28;20050;-67
2021/08/18 06:05:07;;;;;;;10.48;4.85;;;;;;;;;;5013966;28;20081;-67
2021/08/18 06:07:36;;;;;;;14.93;5.25;;;;;;;;;;5014047;28;20420;-68
2021/08/18 06:10:04;;;;;;;18.67;6.82;;;;;;;;;;5014490;28;20053;-68
2021/08/18 06:12:32;;;;;;;13.75;5.70;;;;;;;;;;5014371;28;20053;-67
2021/08/18 06:15:00;;;;;;;18.13;5.90;;;;;;;;;;5013948;28;20413;-67
2021/08/18 06:17:29;;;;;;;13.23;5.32;;;;;;;;;;5014292;28;20068;-67
2021/08/18 06:19:57;;;;;;;16.10;5.50;;;;;;;;;;5014404;28;20050;-68
2021/08/18 06:22:26;;;;;;;16.58;6.10;;;;;;;;;;5014530;28;20129;-67
2021/08/18 06:24:56;;;;;;;19.00;6.40;;;;;;;;;;5014030;28;20058;-67
2021/08/18 06:27:25;;;;;;;17.65;6.93;;;;;;;;;;5014473;28;20042;-68
2021/08/18 06:29:54;;;;;;;15.38;5.68;;;;;;;;;;5014047;28;20049;-68
2021/08/18 06:32:22;;;;;;;15.82;6.78;;;;;;;;;;5013731;28;20553;-68
2021/08/18 06:34:53;;;;;;;15.30;6.22;;;;;;;;;;5013436;28;20437;-68
2021/08/18 06:37:39;;;;;;;19.88;6.43;;;;;;;;;;5013668;28;20518;-68
2021/08/18 06:40:07;;;;;;;16.48;6.40;;;;;;;;;;5013954;28;20042;-67
2021/08/18 06:42:36;;;;;;;19.33;6.80;;;;;;;;;;5013807;28;20145;-69
2021/08/18 06:45:04;;;;;;;14.75;6.43;;;;;;;;;;5013368;28;20081;-69
2021/08/18 06:47:32;;;;;;;20.95;6.68;;;;;;;;;;5013661;28;20050;-68
2021/08/18 06:50:01;;;;;;;23.45;8.05;;;;;;;;;;5013377;28;20466;-68
2021/08/18 06:52:31;;;;;;;22.88;6.97;;;;;;;;;;5013856;28;20064;-69
2021/08/18 06:55:01;;;;;;;21.33;7.30;;;;;;;;;;5013231;28;20140;-69
2021/08/18 06:57:30;;;;;;;20.27;8.05;;;;;;;;;;4996820;28;20057;-68
2021/08/18 06:59:58;;;;;;;20.00;7.10;;;;;;;;;;5003999;28;20052;-68
2021/08/18 07:02:26;;;;;;;19.23;7.25;;;;;;;;;;5013340;28;20068;-68
2021/08/18 07:04:55;;;;;;;18.75;6.93;;;;;;;;;;5013134;28;20410;-68
2021/08/18 07:07:23;;;;;;;20.20;7.03;;;;;;;;;;5013228;28;20136;-68
2021/08/18 07:09:51;;;;;;;22.25;7.55;;;;;;;;;;5013261;28;20082;-68
2021/08/18 07:12:21;;;;;;;17.50;7.07;;;;;;;;;;5013181;28;20073;-68
2021/08/18 07:14:50;;;;;;;18.38;7.28;;;;;;;;;;5012712;28;20138;-68
2021/08/18 07:17:18;;;;;;;18.35;7.20;;;;;;;;;;5013321;28;20472;-68
2021/08/18 07:19:47;;;;;;;19.63;8.20;;;;;;;;;;5013033;28;20042;-68
2021/08/18 07:22:15;;;;;;;21.25;7.43;;;;;;;;;;5012918;28;20050;-68
2021/08/18 07:24:43;;;;;;;23.38;8.20;;;;;;;;;;5009418;28;20108;-68
2021/08/18 07:27:11;;;;;;;25.63;8.40;;;;;;;;;;5013108;28;20458;-68
2021/08/18 07:29:41;;;;;;;21.70;7.72;;;;;;;;;;5012975;28;20093;-68
2021/08/18 07:32:10;;;;;;;20.35;8.18;;;;;;;;;;5012892;28;20082;-68
2021/08/18 07:34:38;;;;;;;22.90;8.65;;;;;;;;;;5012736;28;20125;-69
2021/08/18 07:37:07;;;;;;;25.05;8.27;;;;;;;;;;5012952;28;20088;-68
2021/08/18 07:39:36;;;;;;;25.48;8.82;;;;;;;;;;5012634;28;20401;-69
2021/08/18 07:42:04;;;;;;;23.95;8.25;;;;;;;;;;5012764;28;20057;-68
2021/08/18 07:44:33;;;;;;;28.52;8.65;;;;;;;;;;5012135;28;20069;-69
2021/08/18 07:47:03;;;;;;;20.40;7.82;;;;;;;;;;5012118;28;20081;-69
2021/08/18 07:49:32;;;;;;;24.33;8.88;;;;;;;;;;5012627;28;20046;-70
2021/08/18 07:52:01;;;;;;;22.27;8.00;;;;;;;;;;5012823;28;20050;-70
2021/08/18 07:54:29;;;;;;;19.17;7.68;;;;;;;;;;5011594;28;20413;-68
2021/08/18 07:56:58;;;;;;;19.67;7.82;;;;;;;;;;4999863;28;20058;-68
2021/08/18 07:59:27;;;;;;;25.88;7.55;;;;;;;;;;5005698;28;20038;-69
2021/08/18 08:01:56;;;;;;;21.77;8.32;;;;;;;;;;5012175;28;20124;-68
2021/08/18 08:04:26;;;;;;;22.33;7.88;;;;;;;;;;4992136;28;20049;-68
2021/08/18 08:06:55;;;;;;;23.85;8.38;;;;;;;;;;4992763;28;20061;-70
2021/08/18 08:09:23;;;;;;;22.05;8.85;;;;;;;;;;5001206;28;20457;-68
2021/08/18 08:11:52;;;;;;;20.10;8.13;;;;;;;;;;5012276;28;20108;-70
2021/08/18 08:14:20;;;;;;;16.90;7.10;;;;;;;;;;5011574;28;20498;-69
2021/08/18 08:16:49;;;;;;;18.52;7.32;;;;;;;;;;5011551;28;20498;-68
2021/08/18 08:19:18;;;;;;;19.63;7.50;;;;;;;;;;5011668;28;20041;-69
2021/08/18 08:21:48;;;;;;;16.92;6.63;;;;;;;;;;5012095;28;20041;-68
2021/08/18 08:24:17;;;;;;;18.92;7.65;;;;;;;;;;5010882;28;20068;-68
2021/08/18 08:26:46;;;;;;;19.13;8.00;;;;;;;;;;5012191;28;20465;-69
2021/08/18 08:29:14;;;;;;;24.85;8.15;;;;;;;;;;5011802;28;20072;-69
2021/08/18 08:31:43;;;;;;;19.77;8.00;;;;;;;;;;5013499;28;20057;-69
2021/08/18 08:34:13;;;;;;;17.73;6.97;;;;;;;;;;5012273;28;20053;-70
2021/08/18 08:36:41;;;;;;;17.27;7.30;;;;;;;;;;5013172;28;20045;-70
2021/08/18 08:39:14;;;;;;;16.55;7.80;;;;;;;;;;5012804;28;20038;-69
2021/08/18 08:41:44;;;;;;;16.98;7.20;;;;;;;;;;5013208;28;20383;-69
2021/08/18 08:44:16;;;;;;;17.05;6.88;;;;;;;;;;5011638;28;20077;-70
2021/08/18 08:46:47;;;;;;;16.70;6.95;;;;;;;;;;5011761;28;20050;-70
2021/08/18 08:49:16;;;;;;;20.20;7.57;;;;;;;;;;5011384;28;20552;-70
2021/08/18 08:51:45;;;;;;;19.52;6.57;;;;;;;;;;5011655;28;20462;-69
2021/08/18 08:54:16;;;;;;;17.85;6.45;;;;;;;;;;5010922;28;20088;-70
2021/08/18 08:56:44;;;;;;;17.27;6.80;;;;;;;;;;5000721;28;20042;-70
2021/08/18 08:59:12;;;;;;;15.07;6.60;;;;;;;;;;4991693;28;20054;-69
2021/08/18 09:01:59;;;;;;;17.17;7.22;;;;;;;;;;4991613;28;20573;-69
2021/08/18 09:04:28;;;;;;;18.25;6.90;;;;;;;;;;4952182;28;20105;-70
2021/08/18 09:07:08;;;;;;;18.75;6.88;;;;;;;;;;4965517;28;20545;-70
2021/08/18 09:09:39;;;;;;;15.70;6.68;;;;;;;;;;4972035;28;20101;-70
2021/08/18 09:12:08;;;;;;;16.90;6.80;;;;;;;;;;4973014;28;20054;-70
2021/08/18 09:14:37;;;;;;;15.18;6.90;;;;;;;;;;4972331;28;20092;-70
2021/08/18 09:17:28;;;;;;;18.83;7.63;;;;;;;;;;4973762;28;20476;-70
2021/08/18 09:20:01;;;;;;;16.50;6.65;;;;;;;;;;4973667;28;20125;-68
2021/08/18 09:22:29;;;;;;;14.93;6.65;;;;;;;;;;4973576;28;20094;-68
2021/08/18 09:25:17;;;;;;;15.93;6.32;;;;;;;;;;4971319;28;20051;-69
2021/08/18 09:27:46;;;;;;;14.57;6.30;;;;;;;;;;4971820;28;20061;-68
2021/08/18 09:30:20;;;;;;;15.40;6.70;;;;;;;;;;4968479;28;20058;-69
2021/08/18 09:32:48;;;;;;;15.85;7.05;;;;;;;;;;4971699;28;20078;-69
2021/08/18 09:35:18;;;;;;;13.75;5.95;;;;;;;;;;4971343;28;20137;-69
2021/08/18 09:37:54;;;;;;;14.25;5.72;;;;;;;;;;4970596;28;20377;-70
2021/08/18 09:40:24;;;;;;;13.93;6.20;;;;;;;;;;4971258;28;20057;-69
2021/08/18 09:42:54;;;;;;;17.15;6.20;;;;;;;;;;4971964;28;20146;-70
2021/08/18 09:45:27;;;;;;;15.68;5.78;;;;;;;;;;4971062;28;20061;-70
2021/08/18 09:47:57;;;;;;;18.73;6.40;;;;;;;;;;4971516;28;20066;-68
2021/08/18 09:50:28;;;;;;;16.55;6.38;;;;;;;;;;4971286;28;20102;-70
2021/08/18 09:53:05;;;;;;;17.70;6.65;;;;;;;;;;4971578;28;20113;-69
2021/08/18 09:55:35;;;;;;;13.18;6.05;;;;;;;;;;4970020;28;20051;-69
2021/08/18 09:58:04;;;;;;;12.77;5.53;;;;;;;;;;4961769;28;20055;-69
2021/08/18 10:00:33;;;;;;;12.45;5.35;;;;;;;;;;4971268;28;20058;-69
2021/08/18 10:03:02;;;;;;;16.45;5.90;;;;;;;;;;4991064;28;20167;-69
2021/08/18 10:05:31;;;;;;;13.80;5.63;;;;;;;;;;5009596;28;20085;-70
2021/08/18 10:08:00;;;;;;;15.73;6.05;;;;;;;;;;5010433;28;20100;-69
2021/08/18 10:10:29;;;;;;;13.45;6.22;;;;;;;;;;5009825;28;20387;-69
2021/08/18 10:13:01;;;;;;;12.93;5.65;;;;;;;;;;5010664;28;20405;-70
2021/08/18 10:15:29;;;;;;;13.05;5.30;;;;;;;;;;5009442;28;20129;-70
2021/08/18 10:17:58;;;;;;;11.50;4.88;;;;;;;;;;5010510;28;20050;-69
2021/08/18 10:20:27;;;;;;;13.75;5.55;;;;;;;;;;5010122;28;20046;-69
2021/08/18 10:23:03;;;;;;;16.70;5.90;;;;;;;;;;5010942;28;20054;-70
2021/08/18 10:25:47;;;;;;;12.90;5.38;;;;;;;;;;5009911;28;20048;-69
2021/08/18 10:28:17;;;;;;;12.50;5.60;;;;;;;;;;5010497;28;20076;-69
2021/08/18 10:30:55;;;;;;;10.88;5.18;;;;;;;;;;5010149;28;20050;-69
2021/08/18 10:33:42;;;;;;;12.20;5.00;;;;;;;;;;4991223;28;20474;-69
2021/08/18 10:36:11;;;;;;;11.13;4.95;;;;;;;;;;4973576;28;20061;-69
2021/08/18 10:38:39;;;;;;;12.43;5.00;;;;;;;;;;4990300;28;20054;-70
2021/08/18 10:41:08;;;;;;;11.55;5.43;;;;;;;;;;4990961;28;20093;-69
2021/08/18 10:43:58;;;;;;;10.80;4.30;;;;;;;;;;4990500;28;20537;-69
2021/08/18 10:46:29;;;;;;;9.88;4.57;;;;;;;;;;4991195;28;20046;-70
2021/08/18 10:49:04;;;;;;;10.40;4.85;;;;;;;;;;5002210;28;20050;-70
2021/08/18 10:51:53;;;;;;;12.07;4.28;;;;;;;;;;5014532;28;20053;-69
2021/08/18 10:54:36;;;;;;;12.32;4.55;;;;;;;;;;5014162;28;20453;-69
2021/08/18 10:57:05;;;;;;;15.23;5.03;;;;;;;;;;5001838;28;20082;-69
2021/08/18 10:59:57;;;;;;;11.13;5.18;;;;;;;;;;5014163;28;20132;-70
2021/08/18 11:02:44;;;;;;;10.88;4.65;;;;;;;;;;4999433;28;20050;-69
2021/08/18 11:05:15;;;;;;;13.13;4.35;;;;;;;;;;5013275;28;20054;-70
2021/08/18 11:08:02;;;;;;;14.63;4.85;;;;;;;;;;5013709;28;20115;-69
2021/08/18 11:10:31;;;;;;;12.57;4.97;;;;;;;;;;5014174;28;20084;-70
2021/08/18 11:13:00;;;;;;;12.55;4.47;;;;;;;;;;5014054;28;20047;-70
2021/08/18 11:15:43;;;;;;;10.77;4.28;;;;;;;;;;5013246;28;20104;-70
2021/08/18 11:18:11;;;;;;;9.43;4.57;;;;;;;;;;5013114;28;20092;-70
2021/08/18 11:20:47;;;;;;;12.88;4.10;;;;;;;;;;5013762;28;20093;-70
2021/08/18 11:23:15;;;;;;;9.95;4.82;;;;;;;;;;5013661;28;20060;-70
2021/08/18 11:25:44;;;;;;;11.57;5.18;;;;;;;;;;5012718;28;20129;-69
2021/08/18 11:28:21;;;;;;;13.43;5.25;;;;;;;;;;5010645;28;20084;-70
2021/08/18 11:30:56;;;;;;;12.52;5.07;;;;;;;;;;5013859;28;20088;-69
2021/08/18 11:33:25;;;;;;;13.30;4.97;;;;;;;;;;5013715;28;20089;-70
2021/08/18 11:35:55;;;;;;;10.32;4.07;;;;;;;;;;5012784;28;20439;-69
2021/08/18 11:38:24;;;;;;;10.68;4.30;;;;;;;;;;5013780;28;20100;-70
2021/08/18 11:40:53;;;;;;;10.77;4.15;;;;;;;;;;5013132;28;20056;-70
2021/08/18 11:43:36;;;;;;;9.88;4.47;;;;;;;;;;5013375;28;20076;-70
2021/08/18 11:46:04;;;;;;;9.65;4.28;;;;;;;;;;5010645;28;20539;-70
2021/08/18 11:48:34;;;;;;;9.10;4.18;;;;;;;;;;5012823;28;20080;-70
2021/08/18 11:51:04;;;;;;;10.85;4.13;;;;;;;;;;5013117;28;20046;-70
2021/08/18 11:53:32;;;;;;;11.77;4.22;;;;;;;;;;5012264;28;20545;-70
2021/08/18 11:56:01;;;;;;;8.70;3.88;;;;;;;;;;5009664;28;20125;-71
2021/08/18 11:58:32;;;;;;;8.82;4.10;;;;;;;;;;5012949;28;20045;-69
2021/08/18 12:01:01;;;;;;;10.73;4.43;;;;;;;;;;5012124;28;20048;-70
2021/08/18 12:03:30;;;;;;;10.27;4.25;;;;;;;;;;5011622;28;20061;-70
2021/08/18 12:06:00;;;;;;;9.45;4.05;;;;;;;;;;5012896;28;20097;-70
2021/08/18 12:08:40;;;;;;;6.90;3.83;;;;;;;;;;5013176;28;20133;-71
2021/08/18 12:11:10;;;;;;;9.27;4.13;;;;;;;;;;5013015;28;20045;-70
2021/08/18 12:13:42;;;;;;;7.93;3.63;;;;;;;;;;5011746;28;20119;-70
2021/08/18 12:16:27;;;;;;;11.52;3.97;;;;;;;;;;5012847;28;20085;-70
2021/08/18 12:18:56;;;;;;;;;;;;;;;;;;5013316;28;20136;-70
2021/08/18 12:21:26;;;;;;;4.80;2.70;;;;;;;;;;5012529;28;19933;-69
2021/08/18 12:23:56;;;;;;;5.68;3.00;;;;;;;;;;5011950;28;20049;-70
2021/08/18 12:26:25;;;;;;;7.55;3.13;;;;;;;;;;5013067;28;20050;-70
2021/08/18 12:28:55;;;;;;;8.52;2.63;;;;;;;;;;5012676;28;20046;-70
2021/08/18 12:31:23;;;;;;;6.38;3.10;;;;;;;;;;5012544;28;20042;-70
2021/08/18 12:34:08;;;;;;;7.53;3.53;;;;;;;;;;5011526;28;20457;-70
2021/08/18 12:36:36;;;;;;;6.97;3.17;;;;;;;;;;5012021;28;20068;-70
2021/08/18 12:39:07;;;;;;;5.00;2.83;;;;;;;;;;5011942;28;20105;-70
2021/08/18 12:41:37;;;;;;;9.07;3.60;;;;;;;;;;5012344;28;20053;-70
2021/08/18 12:44:07;;;;;;;5.82;2.80;;;;;;;;;;5011765;28;20579;-70
2021/08/18 12:46:36;;;;;;;5.20;2.67;;;;;;;;;;5012172;28;20088;-70
2021/08/18 12:49:23;;;;;;;7.90;3.15;;;;;;;;;;5012169;28;20050;-70
2021/08/18 12:51:51;;;;;;;6.50;3.50;;;;;;;;;;5011864;28;20042;-70
2021/08/18 12:54:21;;;;;;;8.50;3.65;;;;;;;;;;5011463;28;20124;-70
2021/08/18 12:56:49;;;;;;;4.95;2.50;;;;;;;;;;5001063;28;20050;-70
2021/08/18 12:59:18;;;;;;;6.32;2.72;;;;;;;;;;4992255;28;20268;-70
2021/08/18 13:01:47;;;;;;;9.52;3.55;;;;;;;;;;4992206;28;20162;-70
2021/08/18 13:04:15;;;;;;;7.03;3.08;;;;;;;;;;5010197;28;20209;-70
2021/08/18 13:06:44;;;;;;;6.38;3.10;;;;;;;;;;5011634;28;20053;-70
2021/08/18 13:09:12;;;;;;;6.78;2.72;;;;;;;;;;5011536;28;20081;-70
2021/08/18 13:11:43;;;;;;;9.60;3.28;;;;;;;;;;5011391;28;20084;-68
2021/08/18 13:14:11;;;;;;;6.80;2.92;;;;;;;;;;5007894;28;20117;-69
2021/08/18 13:16:40;;;;;;;6.40;2.90;;;;;;;;;;5011529;28;20046;-68
2021/08/18 13:19:08;;;;;;;5.72;2.80;;;;;;;;;;5011733;28;20115;-70
2021/08/18 13:21:37;;;;;;;5.90;2.72;;;;;;;;;;5011296;28;20060;-70
2021/08/18 13:24:08;;;;;;;7.55;3.00;;;;;;;;;;5010681;28;20057;-70
2021/08/18 13:26:36;;;;;;;7.22;3.05;;;;;;;;;;5011525;28;20133;-70
2021/08/18 13:29:06;;;;;;;5.93;2.92;;;;;;;;;;5011396;28;20050;-70
2021/08/18 13:31:35;;;;;;;6.65;2.90;;;;;;;;;;5011516;28;20089;-70
2021/08/18 13:34:04;;;;;;;5.47;2.75;;;;;;;;;;5011256;28;20077;-70
2021/08/18 13:36:33;;;;;;;7.82;3.08;;;;;;;;;;5008480;28;20042;-70
2021/08/18 13:39:02;;;;;;;4.75;2.38;;;;;;;;;;5010994;28;20050;-70
2021/08/18 13:41:31;;;;;;;6.18;2.97;;;;;;;;;;5011712;28;20053;-70
2021/08/18 13:44:00;;;;;;;7.90;3.35;;;;;;;;;;5010462;28;20080;-70
2021/08/18 13:46:30;;;;;;;6.72;3.25;;;;;;;;;;5011364;28;20046;-70
2021/08/18 13:48:58;;;;;;;7.63;3.25;;;;;;;;;;5011881;28;20056;-70
2021/08/18 13:51:27;;;;;;;6.60;3.08;;;;;;;;;;5011174;28;20053;-70
2021/08/18 13:53:55;;;;;;;6.22;2.35;;;;;;;;;;5011330;28;20037;-70
2021/08/18 13:56:27;;;;;;;5.68;2.50;;;;;;;;;;5004967;28;20050;-70
2021/08/18 13:58:56;;;;;;;7.53;2.97;;;;;;;;;;5001286;28;20049;-69
2021/08/18 14:01:24;;;;;;;5.38;2.83;;;;;;;;;;5012189;28;20107;-69
2021/08/18 14:03:59;;;;;;;7.18;3.03;;;;;;;;;;5009872;28;20046;-69
2021/08/18 14:06:27;;;;;;;5.80;2.67;;;;;;;;;;5011298;28;20099;-70
2021/08/18 14:08:56;;;;;;;8.02;2.58;;;;;;;;;;5011412;28;20293;-70
2021/08/18 14:11:24;;;;;;;6.45;2.65;;;;;;;;;;5011327;28;20104;-69
2021/08/18 14:13:53;;;;;;;4.43;1.92;;;;;;;;;;5010007;28;20041;-69
2021/08/18 14:16:21;;;;;;;5.45;2.42;;;;;;;;;;5010974;28;20048;-70
2021/08/18 14:18:50;;;;;;;7.10;3.10;;;;;;;;;;5010540;28;20046;-70
2021/08/18 14:21:20;;;;;;;7.28;2.88;;;;;;;;;;5010817;28;20046;-69
2021/08/18 14:23:48;;;;;;;5.55;2.63;;;;;;;;;;5012096;28;20050;-70
2021/08/18 14:26:16;;;;;;;6.07;2.33;;;;;;;;;;5014790;28;20077;-70
2021/08/18 14:28:44;;;;;;;5.38;2.20;;;;;;;;;;5014956;28;20046;-70
2021/08/18 14:31:13;;;;;;;6.38;2.10;;;;;;;;;;5014392;28;20045;-69
2021/08/18 14:33:41;;;;;;;5.57;2.67;;;;;;;;;;5013941;28;20053;-69
2021/08/18 14:36:10;;;;;;;4.88;2.22;;;;;;;;;;5014151;28;20414;-70
2021/08/18 14:38:39;;;;;;;6.32;2.75;;;;;;;;;;5014234;28;20049;-70
2021/08/18 14:41:07;;;;;;;5.45;2.55;;;;;;;;;;5014586;28;20137;-71
2021/08/18 14:43:36;;;;;;;5.28;2.38;;;;;;;;;;5013865;28;20116;-70
2021/08/18 14:46:04;;;;;;;5.40;2.10;;;;;;;;;;5013843;28;20100;-70
2021/08/18 14:48:33;;;;;;;7.97;2.80;;;;;;;;;;5014023;28;20434;-70
2021/08/18 14:51:01;;;;;;;4.88;2.50;;;;;;;;;;5014324;28;20050;-69